Asolare — ZCDI3 — position and weather

sailwx.info

Track history (hours):
 
Tides and Currents Weather Stations Pressure Air Temp Water Temp Dewpoint Dewpoint Depression Visibility Wind Speed Wind Dir Waves Ship Positions

Asolare

Last reported at 2017-Aug-23 19:25 UTC. Time now 2017-Aug-23 19:33 UTC.
Position N 43°35' E 007°08'.

Length 47 m; draft 4.9 m.

Type: Sailing vessel. MMSI: 310413000.

Date/timePositionNaut miles runAvg speedWind from/ knotsBaromVisibWave heightAir tempDewpointWater temp
2017-Aug-23 19:25N 43°35' E 007°08'0 0.0
2017-Aug-23 18:58N 43°35' E 007°08'0 0.0
2017-Aug-23 18:28N 43°35' E 007°08'0 0.0
2017-Aug-23 17:58N 43°35' E 007°08'0 0.0
2017-Aug-23 17:25N 43°35' E 007°08'0 0.0
2017-Aug-23 16:58N 43°35' E 007°08'0 0.0
2017-Aug-23 16:25N 43°35' E 007°08'0 0.0
2017-Aug-23 15:58N 43°35' E 007°08'0 0.0
2017-Aug-23 15:16N 43°35' E 007°08'0 0.0
2017-Aug-23 14:10N 43°35' E 007°08'0 0.0
2017-Aug-23 13:16N 43°35' E 007°08'0 0.0
2017-Aug-23 12:46N 43°35' E 007°08'0 0.0
2017-Aug-23 12:27N 43°35' E 007°08'3 5.7
2017-Aug-23 12:00N 43°32' E 007°09'5 9.7
2017-Aug-23 11:30N 43°29' E 007°04'5 9.6
2017-Aug-23 11:01N 43°26' E 006°59'3 6.6
2017-Aug-23 10:30N 43°23' E 006°56'5 9.5
2017-Aug-23 09:58N 43°19' E 006°51'27 9.2
2017-Aug-23 07:05N 43°04' E 006°21'110.1
2017-Aug-23 06:58N 43°04' E 006°20'510.1
2017-Aug-23 06:30N 43°02' E 006°14'2 0.3
2017-Aug-23 01:22N 43°01' E 006°12'0 0.0
2017-Aug-23 00:55N 43°01' E 006°12'0 0.0
2017-Aug-22 23:43N 43°01' E 006°12'0 0.0
2017-Aug-22 22:28N 43°01' E 006°12'0 0.0
2017-Aug-22 20:37N 43°01' E 006°12'0 0.0
2017-Aug-22 20:19N 43°01' E 006°12'0 0.0
2017-Aug-22 19:28N 43°01' E 006°12'0 0.0
2017-Aug-22 18:58N 43°01' E 006°12'0 0.0
2017-Aug-22 18:28N 43°01' E 006°12'0 0.0
2017-Aug-22 17:55N 43°01' E 006°12'0 0.0
2017-Aug-22 17:10N 43°01' E 006°12'0 0.0
2017-Aug-22 16:58N 43°01' E 006°12'0 0.0
2017-Aug-22 16:07N 43°01' E 006°12'0 0.0
2017-Aug-22 15:49N 43°01' E 006°12'0 0.0
2017-Aug-22 14:55N 43°01' E 006°12'0 0.0
2017-Aug-22 14:04N 43°01' E 006°12'0 0.0
2017-Aug-22 13:58N 43°01' E 006°12'0 0.0
2017-Aug-22 13:25N 43°01' E 006°12'0 0.0
2017-Aug-22 12:58N 43°01' E 006°12'0 0.0
2017-Aug-22 12:28N 43°01' E 006°12'0 0.0
2017-Aug-22 11:58N 43°01' E 006°12'0 0.0
2017-Aug-22 11:25N 43°01' E 006°12'0 0.0
2017-Aug-22 09:40N 43°01' E 006°12'10 3.8
2017-Aug-22 06:56N 43°03' E 005°58'5 0.6
2017-Aug-21 21:57N 43°02' E 005°51'12 9.6
2017-Aug-21 20:42N 42°58' E 005°36'2 9.6
2017-Aug-21 20:30N 42°57' E 005°34'5 9.8
2017-Aug-21 20:00N 42°55' E 005°27'5 9.8
2017-Aug-21 19:30N 42°53' E 005°21'510.0
2017-Aug-21 18:59N 42°51' E 005°15'5 9.9
2017-Aug-21 18:30N 42°50' E 005°08'510.0
2017-Aug-21 18:00N 42°49' E 005°02'5 9.9
2017-Aug-21 17:30N 42°48' E 004°55'510.0
2017-Aug-21 17:00N 42°47' E 004°48'510.3
2017-Aug-21 16:30N 42°46' E 004°41'14 9.9
2017-Aug-21 15:03N 42°43' E 004°22'510.1
2017-Aug-21 14:32N 42°42' E 004°15'410.3
2017-Aug-21 14:11N 42°42' E 004°10'210.4
2017-Aug-21 14:00N 42°42' E 004°08'  
2017-Aug-18 16:58N 42°31' E 003°06'0 0.0
2017-Aug-18 16:28N 42°31' E 003°06'0 0.0
2017-Aug-18 15:46N 42°31' E 003°06'0 0.0
2017-Aug-18 15:28N 42°31' E 003°06'0 0.0
2017-Aug-18 14:58N 42°31' E 003°06'0 0.0
2017-Aug-18 14:22N 42°31' E 003°06'0 0.0
2017-Aug-18 13:07N 42°31' E 003°06'0 0.0
2017-Aug-18 12:55N 42°31' E 003°06'0 0.0
2017-Aug-18 11:52N 42°31' E 003°06'0 0.0
2017-Aug-18 11:28N 42°31' E 003°06'0 0.0
2017-Aug-18 10:49N 42°31' E 003°06'0 0.0
2017-Aug-16 17:24N 42°31' E 003°06'0 0.0
2017-Aug-16 16:51N 42°31' E 003°06'0 0.0
2017-Aug-16 16:30N 42°31' E 003°06'0 0.0
2017-Aug-16 15:57N 42°31' E 003°06'0 0.0
2017-Aug-16 15:27N 42°31' E 003°06'0 0.0
2017-Aug-16 14:54N 42°31' E 003°06'0 0.0
2017-Aug-16 14:30N 42°31' E 003°06'0 0.0
2017-Aug-15 12:36N 42°31' E 003°06'0 0.0
2017-Aug-15 12:18N 42°31' E 003°06'0 0.0
2017-Aug-15 11:57N 42°31' E 003°06'0 0.0
2017-Aug-15 09:09N 42°31' E 003°06'0 0.0
2017-Aug-15 08:39N 42°31' E 003°06'0 0.0
2017-Aug-14 20:48N 42°31' E 003°06'0 0.0
2017-Aug-14 20:30N 42°31' E 003°06'0 0.0
2017-Aug-14 19:42N 42°31' E 003°06'0 0.0
2017-Aug-14 19:27N 42°31' E 003°06'0 0.0
2017-Aug-14 18:45N 42°31' E 003°06'0 0.0
2017-Aug-14 18:30N 42°31' E 003°06'0 0.0
2017-Aug-14 17:57N 42°31' E 003°06'0 0.0
2017-Aug-14 17:30N 42°31' E 003°06'0 0.0
2017-Aug-14 16:57N 42°31' E 003°06'0 0.0
2017-Aug-14 16:30N 42°31' E 003°06'0 0.0
2017-Aug-14 16:00N 42°31' E 003°06'0 0.0
2017-Aug-14 14:33N 42°31' E 003°06'0 0.2
2017-Aug-14 14:11N 42°31' E 003°07'1 3.0
2017-Aug-14 13:59N 42°31' E 003°07'0 0.0
2017-Aug-14 13:04N 42°31' E 003°07'0 1.1
2017-Aug-14 12:58N 42°31' E 003°07'4 8.5
2017-Aug-14 12:29N 42°35' E 003°05'7 1.9
2017-Aug-14 08:34N 42°42' E 003°03'0 0.0
2017-Aug-14 08:04N 42°42' E 003°03'0 0.0
2017-Aug-14 07:58N 42°42' E 003°03'0 0.0
2017-Aug-14 07:28N 42°42' E 003°03'0 0.0
2017-Aug-14 05:49N 42°42' E 003°03'0 0.0
2017-Aug-14 05:22N 42°42' E 003°03'0 0.4
2017-Aug-14 05:00N 42°42' E 003°03'4 8.9
2017-Aug-14 04:31N 42°38' E 003°05'610.5
2017-Aug-14 03:57N 42°33' E 003°09'510.5
2017-Aug-14 03:30N 42°29' E 003°12'510.3
2017-Aug-14 03:00N 42°25' E 003°16'510.5
2017-Aug-14 02:29N 42°20' E 003°20'3011.5
2017-Aug-13 23:49N 41°50' E 003°21'  
Track history (hours):
 
Tides and Currents Weather Stations Pressure Air Temp Water Temp Dewpoint Dewpoint Depression Visibility Wind Speed Wind Dir Waves Ship Positions

Asolare

Last reported at 2017-Aug-23 19:25 UTC. Time now 2017-Aug-23 19:33 UTC.
Position N 43°35' E 007°08'.

Length 47 m; draft 4.9 m.

Type: Sailing vessel. MMSI: 310413000.

Date/timePositionNaut miles runAvg speedWind from/ knotsBaromVisibWave heightAir tempDewpointWater temp
2017-Aug-23 19:25N 43°35' E 007°08'0 0.0
2017-Aug-23 18:58N 43°35' E 007°08'0 0.0
2017-Aug-23 18:28N 43°35' E 007°08'0 0.0
2017-Aug-23 17:58N 43°35' E 007°08'0 0.0
2017-Aug-23 17:25N 43°35' E 007°08'0 0.0
2017-Aug-23 16:58N 43°35' E 007°08'0 0.0
2017-Aug-23 16:25N 43°35' E 007°08'0 0.0
2017-Aug-23 15:58N 43°35' E 007°08'0 0.0
2017-Aug-23 15:16N 43°35' E 007°08'0 0.0
2017-Aug-23 14:10N 43°35' E 007°08'0 0.0
2017-Aug-23 13:16N 43°35' E 007°08'0 0.0
2017-Aug-23 12:46N 43°35' E 007°08'0 0.0
2017-Aug-23 12:27N 43°35' E 007°08'3 5.7
2017-Aug-23 12:00N 43°32' E 007°09'5 9.7
2017-Aug-23 11:30N 43°29' E 007°04'5 9.6
2017-Aug-23 11:01N 43°26' E 006°59'3 6.6
2017-Aug-23 10:30N 43°23' E 006°56'5 9.5
2017-Aug-23 09:58N 43°19' E 006°51'27 9.2
2017-Aug-23 07:05N 43°04' E 006°21'110.1
2017-Aug-23 06:58N 43°04' E 006°20'510.1
2017-Aug-23 06:30N 43°02' E 006°14'2 0.3
2017-Aug-23 01:22N 43°01' E 006°12'0 0.0
2017-Aug-23 00:55N 43°01' E 006°12'0 0.0
2017-Aug-22 23:43N 43°01' E 006°12'0 0.0
2017-Aug-22 22:28N 43°01' E 006°12'0 0.0
2017-Aug-22 20:37N 43°01' E 006°12'0 0.0
2017-Aug-22 20:19N 43°01' E 006°12'0 0.0
2017-Aug-22 19:28N 43°01' E 006°12'0 0.0
2017-Aug-22 18:58N 43°01' E 006°12'0 0.0
2017-Aug-22 18:28N 43°01' E 006°12'0 0.0
2017-Aug-22 17:55N 43°01' E 006°12'0 0.0
2017-Aug-22 17:10N 43°01' E 006°12'0 0.0
2017-Aug-22 16:58N 43°01' E 006°12'0 0.0
2017-Aug-22 16:07N 43°01' E 006°12'0 0.0
2017-Aug-22 15:49N 43°01' E 006°12'0 0.0
2017-Aug-22 14:55N 43°01' E 006°12'0 0.0
2017-Aug-22 14:04N 43°01' E 006°12'0 0.0
2017-Aug-22 13:58N 43°01' E 006°12'0 0.0
2017-Aug-22 13:25N 43°01' E 006°12'0 0.0
2017-Aug-22 12:58N 43°01' E 006°12'0 0.0
2017-Aug-22 12:28N 43°01' E 006°12'0 0.0
2017-Aug-22 11:58N 43°01' E 006°12'0 0.0
2017-Aug-22 11:25N 43°01' E 006°12'0 0.0
2017-Aug-22 09:40N 43°01' E 006°12'10 3.8
2017-Aug-22 06:56N 43°03' E 005°58'5 0.6
2017-Aug-21 21:57N 43°02' E 005°51'12 9.6
2017-Aug-21 20:42N 42°58' E 005°36'2 9.6
2017-Aug-21 20:30N 42°57' E 005°34'5 9.8
2017-Aug-21 20:00N 42°55' E 005°27'5 9.8
2017-Aug-21 19:30N 42°53' E 005°21'510.0
2017-Aug-21 18:59N 42°51' E 005°15'5 9.9
2017-Aug-21 18:30N 42°50' E 005°08'510.0
2017-Aug-21 18:00N 42°49' E 005°02'5 9.9
2017-Aug-21 17:30N 42°48' E 004°55'510.0
2017-Aug-21 17:00N 42°47' E 004°48'510.3
2017-Aug-21 16:30N 42°46' E 004°41'14 9.9
2017-Aug-21 15:03N 42°43' E 004°22'510.1
2017-Aug-21 14:32N 42°42' E 004°15'410.3
2017-Aug-21 14:11N 42°42' E 004°10'210.4
2017-Aug-21 14:00N 42°42' E 004°08'  
2017-Aug-18 16:58N 42°31' E 003°06'0 0.0
2017-Aug-18 16:28N 42°31' E 003°06'0 0.0
2017-Aug-18 15:46N 42°31' E 003°06'0 0.0
2017-Aug-18 15:28N 42°31' E 003°06'0 0.0
2017-Aug-18 14:58N 42°31' E 003°06'0 0.0
2017-Aug-18 14:22N 42°31' E 003°06'0 0.0
2017-Aug-18 13:07N 42°31' E 003°06'0 0.0
2017-Aug-18 12:55N 42°31' E 003°06'0 0.0
2017-Aug-18 11:52N 42°31' E 003°06'0 0.0
2017-Aug-18 11:28N 42°31' E 003°06'0 0.0
2017-Aug-18 10:49N 42°31' E 003°06'0 0.0
2017-Aug-16 17:24N 42°31' E 003°06'0 0.0
2017-Aug-16 16:51N 42°31' E 003°06'0 0.0
2017-Aug-16 16:30N 42°31' E 003°06'0 0.0
2017-Aug-16 15:57N 42°31' E 003°06'0 0.0
2017-Aug-16 15:27N 42°31' E 003°06'0 0.0
2017-Aug-16 14:54N 42°31' E 003°06'0 0.0
2017-Aug-16 14:30N 42°31' E 003°06'0 0.0
2017-Aug-15 12:36N 42°31' E 003°06'0 0.0
2017-Aug-15 12:18N 42°31' E 003°06'0 0.0
2017-Aug-15 11:57N 42°31' E 003°06'0 0.0
2017-Aug-15 09:09N 42°31' E 003°06'0 0.0
2017-Aug-15 08:39N 42°31' E 003°06'0 0.0
2017-Aug-14 20:48N 42°31' E 003°06'0 0.0
2017-Aug-14 20:30N 42°31' E 003°06'0 0.0
2017-Aug-14 19:42N 42°31' E 003°06'0 0.0
2017-Aug-14 19:27N 42°31' E 003°06'0 0.0
2017-Aug-14 18:45N 42°31' E 003°06'0 0.0
2017-Aug-14 18:30N 42°31' E 003°06'0 0.0
2017-Aug-14 17:57N 42°31' E 003°06'0 0.0
2017-Aug-14 17:30N 42°31' E 003°06'0 0.0
2017-Aug-14 16:57N 42°31' E 003°06'0 0.0
2017-Aug-14 16:30N 42°31' E 003°06'0 0.0
2017-Aug-14 16:00N 42°31' E 003°06'0 0.0
2017-Aug-14 14:33N 42°31' E 003°06'0 0.2
2017-Aug-14 14:11N 42°31' E 003°07'1 3.0
2017-Aug-14 13:59N 42°31' E 003°07'0 0.0
2017-Aug-14 13:04N 42°31' E 003°07'0 1.1
2017-Aug-14 12:58N 42°31' E 003°07'4 8.5
2017-Aug-14 12:29N 42°35' E 003°05'7 1.9
2017-Aug-14 08:34N 42°42' E 003°03'0 0.0
2017-Aug-14 08:04N 42°42' E 003°03'0 0.0
2017-Aug-14 07:58N 42°42' E 003°03'0 0.0
2017-Aug-14 07:28N 42°42' E 003°03'0 0.0
2017-Aug-14 05:49N 42°42' E 003°03'0 0.0
2017-Aug-14 05:22N 42°42' E 003°03'0 0.4
2017-Aug-14 05:00N 42°42' E 003°03'4 8.9
2017-Aug-14 04:31N 42°38' E 003°05'610.5
2017-Aug-14 03:57N 42°33' E 003°09'510.5
2017-Aug-14 03:30N 42°29' E 003°12'510.3
2017-Aug-14 03:00N 42°25' E 003°16'510.5
2017-Aug-14 02:29N 42°20' E 003°20'3011.5
2017-Aug-13 23:49N 41°50' E 003°21'  

Dump ship's entire track history